Time,TemperatureF,DewpointF,PressureIn,WindDirection,WindDirectionDegrees,WindSpeedMPH,WindSpeedGustMPH,Humidity,HourlyPrecipIn,Conditions,Clouds,dailyrainin,SolarRadiationWatts/m^2,SoftwareType,DateUTC
2013-10-20 00:00:00,35.2,20.2,30.41,SSW,202,1.0,4.0,54,0.00,,,0.00,0,LWC V2.00 B727,2013-10-20 06:00:00,
2013-10-20 00:10:00,33.4,20.2,30.40,SE,135,3.0,6.0,58,0.00,,,0.00,0,LWC V2.00 B727,2013-10-20 06:10:00,
2013-10-20 00:20:00,33.4,20.2,30.40,SE,135,3.0,6.0,58,0.00,,,0.00,0,LWC V2.00 B727,2013-10-20 06:20:00,
2013-10-20 00:30:00,33.4,20.2,30.40,SE,135,3.0,6.0,58,0.00,,,0.00,0,LWC V2.00 B727,2013-10-20 06:30:00,
2013-10-20 00:40:00,32.9,19.8,30.39,SE,135,3.0,6.0,58,0.00,,,0.00,0,LWC V2.00 B727,2013-10-20 06:40:00,
2013-10-20 00:50:00,32.9,19.8,30.39,SE,135,3.0,6.0,58,0.00,,,0.00,0,LWC V2.00 B727,2013-10-20 06:50:00,
2013-10-20 01:00:00,32.9,19.8,30.39,SE,135,3.0,6.0,58,0.00,,,0.00,0,LWC V2.00 B727,2013-10-20 07:00:00,
2013-10-20 01:10:00,32.9,19.8,30.39,SE,135,2.0,6.0,58,0.00,,,0.00,0,LWC V2.00 B727,2013-10-20 07:10:00,
2013-10-20 01:20:00,32.9,19.8,30.39,SE,135,2.0,6.0,58,0.00,,,0.00,0,LWC V2.00 B727,2013-10-20 07:20:00,
2013-10-20 01:30:00,32.9,19.8,30.39,SE,135,2.0,6.0,58,0.00,,,0.00,0,LWC V2.00 B727,2013-10-20 07:30:00,
2013-10-20 01:40:00,33.1,20.0,30.39,SE,135,3.0,6.0,58,0.00,,,0.00,0,LWC V2.00 B727,2013-10-20 07:40:00,
2013-10-20 01:50:00,33.1,20.0,30.39,SE,135,3.0,6.0,58,0.00,,,0.00,0,LWC V2.00 B727,2013-10-20 07:50:00,
2013-10-20 02:00:00,33.1,20.0,30.39,SE,135,3.0,6.0,58,0.00,,,0.00,0,LWC V2.00 B727,2013-10-20 08:00:00,
2013-10-20 02:10:00,32.3,19.2,30.38,SE,135,2.0,5.0,58,0.00,,,0.00,0,LWC V2.00 B727,2013-10-20 08:10:00,
2013-10-20 02:20:00,32.3,19.2,30.38,SE,135,2.0,5.0,58,0.00,,,0.00,0,LWC V2.00 B727,2013-10-20 08:20:00,
2013-10-20 02:30:00,32.3,19.2,30.38,SE,135,2.0,5.0,58,0.00,,,0.00,0,LWC V2.00 B727,2013-10-20 08:30:00,
2013-10-20 02:40:00,32.6,19.5,30.38,SE,135,3.0,6.0,58,0.00,,,0.00,0,LWC V2.00 B727,2013-10-20 08:40:00,
2013-10-20 02:50:00,32.6,19.5,30.38,SE,135,3.0,6.0,58,0.00,,,0.00,0,LWC V2.00 B727,2013-10-20 08:50:00,
2013-10-20 03:00:00,32.6,19.5,30.38,SE,135,3.0,6.0,58,0.00,,,0.00,0,LWC V2.00 B727,2013-10-20 09:00:00,
2013-10-20 03:10:00,31.6,19.7,30.37,SE,135,2.0,6.0,61,0.00,,,0.00,0,LWC V2.00 B727,2013-10-20 09:10:00,
2013-10-20 03:20:00,31.6,19.7,30.37,SE,135,2.0,6.0,61,0.00,,,0.00,0,LWC V2.00 B727,2013-10-20 09:20:00,
2013-10-20 03:30:00,31.6,19.7,30.37,SE,135,2.0,6.0,61,0.00,,,0.00,0,LWC V2.00 B727,2013-10-20 09:30:00,
2013-10-20 03:40:00,30.9,19.4,30.36,SE,135,1.0,5.0,62,0.00,,,0.00,0,LWC V2.00 B727,2013-10-20 09:40:00,
2013-10-20 03:50:00,30.9,19.4,30.36,SE,135,1.0,5.0,62,0.00,,,0.00,0,LWC V2.00 B727,2013-10-20 09:50:00,
2013-10-20 04:00:00,30.9,19.4,30.36,SE,135,1.0,5.0,62,0.00,,,0.00,0,LWC V2.00 B727,2013-10-20 10:00:00,
2013-10-20 04:10:00,30.8,20.1,30.36,SE,135,2.0,6.0,64,0.00,,,0.00,0,LWC V2.00 B727,2013-10-20 10:10:00,
2013-10-20 04:20:00,30.8,20.1,30.36,SE,135,2.0,6.0,64,0.00,,,0.00,0,LWC V2.00 B727,2013-10-20 10:20:00,
2013-10-20 04:30:00,30.8,20.1,30.36,SE,135,2.0,6.0,64,0.00,,,0.00,0,LWC V2.00 B727,2013-10-20 10:30:00,
2013-10-20 04:40:00,29.8,19.9,30.36,SE,135,2.0,5.0,66,0.00,,,0.00,0,LWC V2.00 B727,2013-10-20 10:40:00,
2013-10-20 04:50:00,29.8,19.9,30.36,SE,135,2.0,5.0,66,0.00,,,0.00,0,LWC V2.00 B727,2013-10-20 10:50:00,
2013-10-20 05:00:00,29.9,20.3,30.35,SE,135,2.0,5.0,67,0.00,,,0.00,0,LWC V2.00 B727,2013-10-20 11:00:00,
2013-10-20 05:10:00,29.9,20.3,30.35,SE,135,2.0,5.0,67,0.00,,,0.00,0,LWC V2.00 B727,2013-10-20 11:10:00,
2013-10-20 05:20:00,29.9,20.3,30.35,SE,135,2.0,5.0,67,0.00,,,0.00,0,LWC V2.00 B727,2013-10-20 11:20:00,
2013-10-20 05:30:00,29.7,19.8,30.34,SE,135,2.0,6.0,66,0.00,,,0.00,0,LWC V2.00 B727,2013-10-20 11:30:00,
2013-10-20 05:40:00,29.7,19.8,30.34,SE,135,2.0,6.0,66,0.00,,,0.00,0,LWC V2.00 B727,2013-10-20 11:40:00,
2013-10-20 05:50:00,29.7,19.8,30.34,SE,135,2.0,6.0,66,0.00,,,0.00,0,LWC V2.00 B727,2013-10-20 11:50:00,
2013-10-20 06:00:00,29.4,19.5,30.33,SE,135,3.0,7.0,66,0.00,,,0.00,0,LWC V2.00 B727,2013-10-20 12:00:00,
2013-10-20 06:10:00,29.4,19.5,30.33,SE,135,3.0,7.0,66,0.00,,,0.00,0,LWC V2.00 B727,2013-10-20 12:10:00,
2013-10-20 06:20:00,29.4,19.5,30.33,SE,135,3.0,7.0,66,0.00,,,0.00,0,LWC V2.00 B727,2013-10-20 12:20:00,
2013-10-20 06:30:00,29.2,19.3,30.32,SE,135,3.0,6.0,66,0.00,,,0.00,0,LWC V2.00 B727,2013-10-20 12:30:00,
2013-10-20 06:40:00,29.2,19.3,30.32,SE,135,3.0,6.0,66,0.00,,,0.00,0,LWC V2.00 B727,2013-10-20 12:40:00,
2013-10-20 06:50:00,29.2,19.3,30.32,SE,135,3.0,6.0,66,0.00,,,0.00,0,LWC V2.00 B727,2013-10-20 12:50:00,
2013-10-20 07:00:00,29.0,19.4,30.32,SE,135,2.0,6.0,67,0.00,,,0.00,0,LWC V2.00 B727,2013-10-20 13:00:00,
2013-10-20 07:10:00,29.0,19.4,30.32,SE,135,2.0,6.0,67,0.00,,,0.00,0,LWC V2.00 B727,2013-10-20 13:10:00,
2013-10-20 07:20:00,29.0,19.4,30.32,SE,135,2.0,6.0,67,0.00,,,0.00,0,LWC V2.00 B727,2013-10-20 13:20:00,
2013-10-20 07:30:00,28.9,19.3,30.33,SE,135,2.0,5.0,67,0.00,,,0.00,4,LWC V2.00 B727,2013-10-20 13:30:00,
2013-10-20 07:40:00,28.9,19.3,30.33,SE,135,2.0,5.0,67,0.00,,,0.00,4,LWC V2.00 B727,2013-10-20 13:40:00,
2013-10-20 07:50:00,28.9,19.3,30.33,SE,135,2.0,5.0,67,0.00,,,0.00,4,LWC V2.00 B727,2013-10-20 13:50:00,
2013-10-20 08:00:00,31.6,20.5,30.33,SE,135,3.0,6.0,63,0.00,,,0.00,45,LWC V2.00 B727,2013-10-20 14:00:00,
2013-10-20 08:10:00,31.6,20.5,30.33,SE,135,3.0,6.0,63,0.00,,,0.00,45,LWC V2.00 B727,2013-10-20 14:10:00,
2013-10-20 08:20:00,31.6,20.5,30.33,SE,135,3.0,6.0,63,0.00,,,0.00,45,LWC V2.00 B727,2013-10-20 14:20:00,
2013-10-20 08:30:00,31.6,20.5,30.33,SE,135,3.0,6.0,63,0.00,,,0.00,45,LWC V2.00 B727,2013-10-20 14:30:00,
2013-10-20 08:40:00,36.3,22.5,30.33,SE,135,2.0,6.0,57,0.00,,,0.00,156,LWC V2.00 B727,2013-10-20 14:40:00,
2013-10-20 08:50:00,36.3,22.5,30.33,SE,135,2.0,6.0,57,0.00,,,0.00,156,LWC V2.00 B727,2013-10-20 14:50:00,
2013-10-20 09:00:00,36.3,22.5,30.33,SE,135,2.0,6.0,57,0.00,,,0.00,156,LWC V2.00 B727,2013-10-20 15:00:00,
2013-10-20 09:10:00,41.9,22.1,30.33,South,180,1.0,5.0,45,0.00,,,0.00,280,LWC V2.00 B727,2013-10-20 15:10:00,
2013-10-20 09:20:00,41.9,22.1,30.33,South,180,1.0,5.0,45,0.00,,,0.00,280,LWC V2.00 B727,2013-10-20 15:20:00,
2013-10-20 09:30:00,41.9,22.1,30.33,South,180,1.0,5.0,45,0.00,,,0.00,280,LWC V2.00 B727,2013-10-20 15:30:00,
2013-10-20 09:40:00,45.2,24.6,30.32,NW,315,2.0,6.0,44,0.00,,,0.00,380,LWC V2.00 B727,2013-10-20 15:40:00,
2013-10-20 09:50:00,45.2,24.6,30.32,NW,315,2.0,6.0,44,0.00,,,0.00,380,LWC V2.00 B727,2013-10-20 15:50:00,
2013-10-20 10:00:00,45.2,24.6,30.32,NW,315,2.0,6.0,44,0.00,,,0.00,380,LWC V2.00 B727,2013-10-20 16:00:00,
2013-10-20 10:10:00,48.2,25.6,30.30,NW,315,2.0,6.0,41,0.00,,,0.00,471,LWC V2.00 B727,2013-10-20 16:10:00,
2013-10-20 10:20:00,48.2,25.6,30.30,NW,315,2.0,6.0,41,0.00,,,0.00,471,LWC V2.00 B727,2013-10-20 16:20:00,
2013-10-20 10:30:00,48.2,25.6,30.30,NW,315,2.0,6.0,41,0.00,,,0.00,471,LWC V2.00 B727,2013-10-20 16:30:00,
2013-10-20 10:40:00,50.7,24.7,30.30,WNW,292,3.0,8.0,36,0.00,,,0.00,550,LWC V2.00 B727,2013-10-20 16:40:00,
2013-10-20 10:50:00,50.7,24.7,30.30,WNW,292,3.0,8.0,36,0.00,,,0.00,550,LWC V2.00 B727,2013-10-20 16:50:00,
2013-10-20 11:00:00,50.7,24.7,30.30,WNW,292,3.0,8.0,36,0.00,,,0.00,550,LWC V2.00 B727,2013-10-20 17:00:00,
2013-10-20 11:10:00,52.3,24.8,30.28,West,270,4.0,9.0,34,0.00,,,0.00,625,LWC V2.00 B727,2013-10-20 17:10:00,
2013-10-20 11:20:00,52.3,24.8,30.28,West,270,4.0,9.0,34,0.00,,,0.00,625,LWC V2.00 B727,2013-10-20 17:20:00,
2013-10-20 11:30:00,52.3,24.8,30.28,West,270,4.0,9.0,34,0.00,,,0.00,625,LWC V2.00 B727,2013-10-20 17:30:00,
2013-10-20 11:40:00,54.2,25.7,30.27,WSW,248,4.0,11.0,33,0.00,,,0.00,683,LWC V2.00 B727,2013-10-20 17:40:00,
2013-10-20 11:50:00,54.2,25.7,30.27,WSW,248,4.0,11.0,33,0.00,,,0.00,683,LWC V2.00 B727,2013-10-20 17:50:00,
2013-10-20 12:00:00,54.2,25.7,30.27,WSW,248,4.0,11.0,33,0.00,,,0.00,683,LWC V2.00 B727,2013-10-20 18:00:00,
2013-10-20 12:10:00,54.5,24.5,30.26,SSW,202,5.0,13.0,31,0.00,,,0.00,724,LWC V2.00 B727,2013-10-20 18:10:00,
2013-10-20 12:20:00,54.5,24.5,30.26,SSW,202,5.0,13.0,31,0.00,,,0.00,724,LWC V2.00 B727,2013-10-20 18:20:00,
2013-10-20 12:30:00,54.5,24.5,30.26,SSW,202,5.0,13.0,31,0.00,,,0.00,724,LWC V2.00 B727,2013-10-20 18:30:00,
2013-10-20 12:40:00,55.3,25.2,30.24,WSW,248,5.0,13.0,31,0.00,,,0.00,752,LWC V2.00 B727,2013-10-20 18:40:00,
2013-10-20 12:50:00,55.3,25.2,30.24,WSW,248,5.0,13.0,31,0.00,,,0.00,752,LWC V2.00 B727,2013-10-20 18:50:00,
2013-10-20 13:00:00,55.3,25.2,30.24,WSW,248,5.0,13.0,31,0.00,,,0.00,752,LWC V2.00 B727,2013-10-20 19:00:00,
2013-10-20 13:10:00,55.5,26.1,30.23,SW,225,5.0,13.0,32,0.00,,,0.00,764,LWC V2.00 B727,2013-10-20 19:10:00,
2013-10-20 13:20:00,55.5,26.1,30.23,SW,225,5.0,13.0,32,0.00,,,0.00,764,LWC V2.00 B727,2013-10-20 19:20:00,
2013-10-20 13:30:00,55.5,26.1,30.23,SW,225,5.0,13.0,32,0.00,,,0.00,764,LWC V2.00 B727,2013-10-20 19:30:00,
2013-10-20 13:40:00,56.2,26.0,30.21,WSW,248,4.0,10.0,31,0.00,,,0.00,757,LWC V2.00 B727,2013-10-20 19:40:00,
2013-10-20 13:50:00,56.2,26.0,30.21,WSW,248,4.0,10.0,31,0.00,,,0.00,757,LWC V2.00 B727,2013-10-20 19:50:00,
2013-10-20 14:00:00,56.2,26.0,30.21,WSW,248,4.0,10.0,31,0.00,,,0.00,757,LWC V2.00 B727,2013-10-20 20:00:00,
2013-10-20 14:10:00,56.1,25.1,30.19,SSW,202,4.0,12.0,30,0.00,,,0.00,736,LWC V2.00 B727,2013-10-20 20:10:00,
2013-10-20 14:20:00,56.1,25.1,30.19,SSW,202,4.0,12.0,30,0.00,,,0.00,736,LWC V2.00 B727,2013-10-20 20:20:00,
2013-10-20 14:30:00,56.1,25.1,30.19,SSW,202,4.0,12.0,30,0.00,,,0.00,736,LWC V2.00 B727,2013-10-20 20:30:00,
2013-10-20 14:40:00,56.9,27.4,30.18,WSW,248,4.0,11.0,32,0.00,,,0.00,698,LWC V2.00 B727,2013-10-20 20:40:00,
2013-10-20 14:50:00,56.9,27.4,30.18,WSW,248,4.0,11.0,32,0.00,,,0.00,698,LWC V2.00 B727,2013-10-20 20:50:00,
2013-10-20 15:00:00,56.9,27.4,30.18,WSW,248,4.0,11.0,32,0.00,,,0.00,698,LWC V2.00 B727,2013-10-20 21:00:00,
2013-10-20 15:10:00,57.2,24.4,30.18,West,270,4.0,15.0,28,0.00,,,0.00,644,LWC V2.00 B727,2013-10-20 21:10:00,
2013-10-20 15:20:00,57.2,24.4,30.18,West,270,4.0,15.0,28,0.00,,,0.00,644,LWC V2.00 B727,2013-10-20 21:20:00,
2013-10-20 15:30:00,57.2,24.4,30.18,West,270,4.0,15.0,28,0.00,,,0.00,644,LWC V2.00 B727,2013-10-20 21:30:00,
2013-10-20 15:40:00,57.5,25.5,30.17,WNW,292,3.0,13.0,29,0.00,,,0.00,570,LWC V2.00 B727,2013-10-20 21:40:00,
2013-10-20 15:50:00,57.5,25.5,30.17,WNW,292,3.0,13.0,29,0.00,,,0.00,570,LWC V2.00 B727,2013-10-20 21:50:00,
2013-10-20 16:00:00,57.5,25.5,30.17,WNW,292,3.0,13.0,29,0.00,,,0.00,570,LWC V2.00 B727,2013-10-20 22:00:00,
2013-10-20 16:10:00,57.9,23.2,30.17,SW,225,4.0,13.0,26,0.00,,,0.00,487,LWC V2.00 B727,2013-10-20 22:10:00,
2013-10-20 16:20:00,57.9,23.2,30.17,SW,225,4.0,13.0,26,0.00,,,0.00,487,LWC V2.00 B727,2013-10-20 22:20:00,
2013-10-20 16:30:00,57.9,23.2,30.17,SW,225,4.0,13.0,26,0.00,,,0.00,487,LWC V2.00 B727,2013-10-20 22:30:00,
2013-10-20 16:40:00,57.5,24.7,30.17,WSW,248,3.0,12.0,28,0.00,,,0.00,397,LWC V2.00 B727,2013-10-20 22:40:00,
2013-10-20 16:50:00,57.5,24.7,30.17,WSW,248,3.0,12.0,28,0.00,,,0.00,397,LWC V2.00 B727,2013-10-20 22:50:00,
2013-10-20 17:00:00,57.5,24.7,30.17,WSW,248,3.0,12.0,28,0.00,,,0.00,397,LWC V2.00 B727,2013-10-20 23:00:00,
2013-10-20 17:10:00,56.7,24.0,30.17,WSW,248,3.0,12.0,28,0.00,,,0.00,290,LWC V2.00 B727,2013-10-20 23:10:00,
2013-10-20 17:20:00,56.7,24.0,30.17,WSW,248,3.0,12.0,28,0.00,,,0.00,290,LWC V2.00 B727,2013-10-20 23:20:00,
2013-10-20 17:30:00,56.7,24.0,30.17,WSW,248,3.0,12.0,28,0.00,,,0.00,290,LWC V2.00 B727,2013-10-20 23:30:00,
2013-10-20 17:40:00,55.4,22.0,30.17,SW,225,3.0,13.0,27,0.00,,,0.00,157,LWC V2.00 B727,2013-10-20 23:40:00,
2013-10-20 17:50:00,55.4,22.0,30.17,SW,225,3.0,13.0,27,0.00,,,0.00,157,LWC V2.00 B727,2013-10-20 23:50:00,
2013-10-20 18:00:00,55.4,22.0,30.17,SW,225,3.0,13.0,27,0.00,,,0.00,157,LWC V2.00 B727,2013-10-21 00:00:00,
2013-10-20 18:10:00,54.1,20.9,30.17,SW,225,2.0,7.0,27,0.00,,,0.00,39,LWC V2.00 B727,2013-10-21 00:10:00,
2013-10-20 18:20:00,54.1,20.9,30.17,SW,225,2.0,7.0,27,0.00,,,0.00,39,LWC V2.00 B727,2013-10-21 00:20:00,
2013-10-20 18:30:00,54.1,20.9,30.17,SW,225,2.0,7.0,27,0.00,,,0.00,39,LWC V2.00 B727,2013-10-21 00:30:00,
2013-10-20 18:40:00,51.2,20.0,30.18,WSW,248,2.0,7.0,29,0.00,,,0.00,8,LWC V2.00 B727,2013-10-21 00:40:00,
2013-10-20 18:50:00,51.2,20.0,30.18,WSW,248,2.0,7.0,29,0.00,,,0.00,8,LWC V2.00 B727,2013-10-21 00:50:00,
2013-10-20 19:00:00,51.2,20.0,30.18,WSW,248,2.0,7.0,29,0.00,,,0.00,8,LWC V2.00 B727,2013-10-21 01:00:00,
2013-10-20 19:10:00,48.1,21.8,30.20,SSW,202,1.0,4.0,35,0.00,,,0.00,0,LWC V2.00 B727,2013-10-21 01:10:00,
2013-10-20 19:20:00,48.1,21.8,30.20,SSW,202,1.0,4.0,35,0.00,,,0.00,0,LWC V2.00 B727,2013-10-21 01:20:00,
2013-10-20 19:30:00,48.1,21.8,30.20,SSW,202,1.0,4.0,35,0.00,,,0.00,0,LWC V2.00 B727,2013-10-21 01:30:00,
2013-10-20 19:40:00,46.4,20.9,30.21,SSW,202,1.0,4.0,36,0.00,,,0.00,0,LWC V2.00 B727,2013-10-21 01:40:00,
2013-10-20 19:50:00,46.4,20.9,30.21,SSW,202,1.0,4.0,36,0.00,,,0.00,0,LWC V2.00 B727,2013-10-21 01:50:00,
2013-10-20 20:00:00,46.4,20.9,30.21,SSW,202,1.0,4.0,36,0.00,,,0.00,0,LWC V2.00 B727,2013-10-21 02:00:00,
2013-10-20 20:10:00,47.1,20.2,30.22,SSW,202,3.0,7.0,34,0.00,,,0.00,0,LWC V2.00 B727,2013-10-21 02:10:00,
2013-10-20 20:20:00,47.1,20.2,30.22,SSW,202,3.0,7.0,34,0.00,,,0.00,0,LWC V2.00 B727,2013-10-21 02:20:00,
2013-10-20 20:30:00,47.1,20.2,30.22,SSW,202,3.0,7.0,34,0.00,,,0.00,0,LWC V2.00 B727,2013-10-21 02:30:00,
2013-10-20 20:40:00,47.5,20.6,30.22,SSW,202,3.0,6.0,34,0.00,,,0.00,0,LWC V2.00 B727,2013-10-21 02:40:00,
2013-10-20 20:50:00,47.5,20.6,30.22,SSW,202,3.0,6.0,34,0.00,,,0.00,0,LWC V2.00 B727,2013-10-21 02:50:00,
2013-10-20 21:00:00,47.5,20.6,30.22,SSW,202,3.0,6.0,34,0.00,,,0.00,0,LWC V2.00 B727,2013-10-21 03:00:00,
2013-10-20 21:10:00,46.6,22.4,30.22,South,180,1.0,6.0,38,0.00,,,0.00,0,LWC V2.00 B727,2013-10-21 03:10:00,
2013-10-20 21:20:00,46.6,22.4,30.22,South,180,1.0,6.0,38,0.00,,,0.00,0,LWC V2.00 B727,2013-10-21 03:20:00,
2013-10-20 21:30:00,46.6,22.4,30.22,South,180,1.0,6.0,38,0.00,,,0.00,0,LWC V2.00 B727,2013-10-21 03:30:00,
2013-10-20 21:40:00,45.3,21.2,30.22,South,180,1.0,4.0,38,0.00,,,0.00,0,LWC V2.00 B727,2013-10-21 03:40:00,
2013-10-20 21:50:00,45.3,21.2,30.22,South,180,1.0,4.0,38,0.00,,,0.00,0,LWC V2.00 B727,2013-10-21 03:50:00,
2013-10-20 22:00:00,45.3,21.2,30.22,South,180,1.0,4.0,38,0.00,,,0.00,0,LWC V2.00 B727,2013-10-21 04:00:00,
2013-10-20 22:10:00,44.4,22.8,30.23,South,180,0.0,3.0,42,0.00,,,0.00,0,LWC V2.00 B727,2013-10-21 04:10:00,
2013-10-20 22:20:00,44.4,22.8,30.23,South,180,0.0,3.0,42,0.00,,,0.00,0,LWC V2.00 B727,2013-10-21 04:20:00,
2013-10-20 22:30:00,44.4,22.8,30.23,South,180,0.0,3.0,42,0.00,,,0.00,0,LWC V2.00 B727,2013-10-21 04:30:00,
2013-10-20 22:40:00,43.4,22.4,30.23,South,180,1.0,4.0,43,0.00,,,0.00,0,LWC V2.00 B727,2013-10-21 04:40:00,
2013-10-20 22:50:00,43.4,22.4,30.23,South,180,1.0,4.0,43,0.00,,,0.00,0,LWC V2.00 B727,2013-10-21 04:50:00,
2013-10-20 23:00:00,43.4,22.4,30.23,South,180,1.0,4.0,43,0.00,,,0.00,0,LWC V2.00 B727,2013-10-21 05:00:00,
2013-10-20 23:10:00,43.1,22.1,30.24,South,180,1.0,4.0,43,0.00,,,0.00,0,LWC V2.00 B727,2013-10-21 05:10:00,
2013-10-20 23:20:00,43.1,22.1,30.24,South,180,1.0,4.0,43,0.00,,,0.00,0,LWC V2.00 B727,2013-10-21 05:20:00,
2013-10-20 23:30:00,43.1,22.1,30.24,South,180,1.0,4.0,43,0.00,,,0.00,0,LWC V2.00 B727,2013-10-21 05:30:00,
2013-10-20 23:40:00,42.8,24.0,30.24,ESE,112,0.0,3.0,47,0.00,,,0.00,0,LWC V2.00 B727,2013-10-21 05:40:00,
2013-10-20 23:50:00,42.8,24.0,30.24,ESE,112,0.0,3.0,47,0.00,,,0.00,0,LWC V2.00 B727,2013-10-21 05:50:00,